Time;durP1;ratioP1;P1;durP2;ratioP2;P2;SDS_P1;SDS_P2;PMS_P1;PMS_P2;Temp;Humidity;BMP_temperature;BMP_pressure;BME280_temperature;BME280_humidity;BME280_pressure;Samples;Min_cycle;Max_cycle;Signal;HPM_P1;HPM_P2
2022/01/17 00:01:29;;;;;;;27.67;14.27;;;;;;;3.99;95.85;101802.97;5025336;28;20021;-64
2022/01/17 00:03:54;;;;;;;32.20;15.15;;;;;;;3.99;95.78;101803.88;5040997;28;20048;-64
2022/01/17 00:06:20;;;;;;;25.95;14.95;;;;;;;3.99;95.87;101813.50;5032748;28;20029;-64
2022/01/17 00:08:46;;;;;;;38.78;16.63;;;;;;;4.05;95.81;101808.38;5046685;28;20075;-65
2022/01/17 00:11:12;;;;;;;32.30;16.30;;;;;;;3.99;95.68;101810.88;5029540;28;20030;-65
2022/01/17 00:13:39;;;;;;;30.58;15.85;;;;;;;3.99;95.80;101808.22;5029260;28;20064;-65
2022/01/17 00:16:10;;;;;;;32.88;15.77;;;;;;;3.97;96.38;101816.09;5047819;28;20087;-64
2022/01/17 00:21:04;;;;;;;29.70;16.02;;;;;;;4.04;96.67;101806.59;5045777;28;20052;-63
2022/01/17 00:23:29;;;;;;;32.53;16.77;;;;;;;4.10;96.68;101817.28;5048209;28;20040;-64
2022/01/17 00:25:55;;;;;;;36.60;16.77;;;;;;;4.08;96.71;101816.34;5049327;28;20075;-64
2022/01/17 00:28:20;;;;;;;37.30;17.17;;;;;;;4.12;97.12;101822.56;5049084;28;20389;-64
2022/01/17 00:30:45;;;;;;;34.95;16.20;;;;;;;4.14;97.44;101827.00;5034551;28;20490;-63
2022/01/17 00:33:12;;;;;;;28.40;16.45;;;;;;;4.16;97.07;101827.94;5029094;28;20504;-63
2022/01/17 00:35:39;;;;;;;31.65;16.42;;;;;;;4.11;97.05;101820.78;5039160;28;20395;-64
2022/01/17 00:38:05;;;;;;;40.63;16.75;;;;;;;4.03;97.05;101821.53;5049179;28;20582;-64
2022/01/17 00:40:31;;;;;;;46.13;18.73;;;;;;;4.13;97.07;101830.50;5048379;28;20021;-63
2022/01/17 00:42:56;;;;;;;38.10;16.88;;;;;;;4.19;97.07;101833.25;5047456;28;20041;-63
2022/01/17 00:45:27;;;;;;;35.63;17.55;;;;;;;3.86;98.10;101845.66;5048033;28;20453;-64
2022/01/17 00:47:55;;;;;;;29.13;16.42;;;;;;;3.76;99.10;101848.94;5048263;28;20162;-64
2022/01/17 00:50:22;;;;;;;32.80;15.52;;;;;;;4.08;98.04;101842.69;5046239;28;20024;-63
2022/01/17 00:52:47;;;;;;;33.50;16.80;;;;;;;4.14;97.35;101836.63;5038528;28;20384;-63
2022/01/17 00:55:13;;;;;;;32.78;16.77;;;;;;;4.18;97.01;101841.13;5050140;28;20017;-63
2022/01/17 00:57:38;;;;;;;37.60;18.52;;;;;;;4.15;96.82;101843.72;5049623;28;20119;-63
2022/01/17 01:00:05;;;;;;;30.95;15.55;;;;;;;3.99;97.03;101845.09;5048652;28;20025;-63
2022/01/17 01:02:31;;;;;;;35.75;15.40;;;;;;;3.92;98.67;101848.47;5049856;28;20035;-63
2022/01/17 01:04:56;;;;;;;34.10;16.70;;;;;;;4.12;97.07;101844.50;5049622;28;20037;-64
2022/01/17 01:07:21;;;;;;;38.40;16.98;;;;;;;4.13;96.44;101837.50;5049179;28;20419;-63
2022/01/17 01:09:59;;;;;;;41.88;17.42;;;;;;;4.11;96.29;101833.94;5048979;28;20032;-63
2022/01/17 01:12:25;;;;;;;34.67;17.33;;;;;;;4.16;95.47;101846.38;5047561;28;20064;-63
2022/01/17 01:14:50;;;;;;;34.65;17.38;;;;;;;4.23;95.49;101853.56;5038134;28;20477;-63
2022/01/17 01:17:31;;;;;;;36.33;16.05;;;;;;;4.23;95.26;101856.19;5046889;28;20061;-63
2022/01/17 01:20:08;;;;;;;38.67;17.70;;;;;;;4.14;95.69;101857.72;5028523;28;20033;-63
2022/01/17 01:28:04;;;;;;;38.30;17.08;;;;;;;4.13;96.10;101850.69;5028827;28;20083;-63
2022/01/17 01:30:30;;;;;;;42.05;17.58;;;;;;;4.13;96.06;101842.78;5031508;28;20496;-63
2022/01/17 01:32:58;;;;;;;33.13;16.15;;;;;;;4.18;95.71;101835.88;5029327;28;20026;-63
2022/01/17 01:35:27;;;;;;;38.55;17.65;;;;;;;4.15;95.83;101841.06;5031718;28;20144;-63
2022/01/17 01:37:52;;;;;;;33.13;17.08;;;;;;;4.11;96.20;101829.59;5028733;28;20088;-65
2022/01/17 01:40:20;;;;;;;42.05;18.60;;;;;;;4.10;95.85;101822.56;5028821;28;20025;-64
2022/01/17 01:42:48;;;;;;;39.88;19.45;;;;;;;4.11;95.84;101834.84;5029393;28;20025;-65
2022/01/17 01:45:14;;;;;;;38.55;18.63;;;;;;;4.14;95.89;101834.91;5029190;28;20017;-64
2022/01/17 01:47:40;;;;;;;40.80;18.95;;;;;;;4.18;95.81;101833.25;5029247;28;20390;-64
2022/01/17 01:50:07;;;;;;;42.28;18.83;;;;;;;3.86;96.99;101849.19;5028882;28;20100;-64
2022/01/17 01:52:33;;;;;;;36.65;18.08;;;;;;;3.74;97.90;101834.88;5034352;28;20477;-64
2022/01/17 01:54:58;;;;;;;36.50;18.13;;;;;;;3.77;98.32;101843.69;5031272;28;20041;-64
2022/01/17 01:57:24;;;;;;;47.83;19.65;;;;;;;4.14;96.70;101834.00;5029132;28;20027;-64
2022/01/17 01:59:49;;;;;;;37.85;15.93;;;;;;;4.19;95.80;101843.81;5027928;28;20053;-64
2022/01/17 02:02:15;;;;;;;33.60;15.32;;;;;;;4.24;95.35;101841.25;5030886;28;20118;-64
2022/01/17 02:04:40;;;;;;;36.45;16.50;;;;;;;4.25;95.01;101836.03;5033065;28;20084;-64
2022/01/17 02:07:06;;;;;;;31.17;16.05;;;;;;;4.01;94.24;101814.44;5032586;28;20029;-64
2022/01/17 02:09:34;;;;;;;32.40;15.80;;;;;;;3.86;96.21;101827.25;5032353;28;20029;-64
2022/01/17 02:11:59;;;;;;;36.72;16.23;;;;;;;3.81;96.97;101829.78;5032187;28;20021;-64
2022/01/17 02:14:25;;;;;;;32.38;16.45;;;;;;;3.80;97.23;101832.38;5036048;28;20111;-64
2022/01/17 02:16:51;;;;;;;33.65;16.25;;;;;;;3.77;97.36;101830.53;5052150;28;20474;-64
2022/01/17 02:19:24;;;;;;;29.08;15.15;;;;;;;3.74;97.68;101826.97;5033109;28;20044;-64
2022/01/17 02:21:50;;;;;;;27.92;15.65;;;;;;;3.73;97.46;101831.34;5051302;28;20108;-64
2022/01/17 02:24:20;;;;;;;35.40;16.20;;;;;;;3.70;97.33;101827.75;5052290;28;20107;-64
2022/01/17 02:26:47;;;;;;;32.75;16.10;;;;;;;3.69;97.73;101828.59;5052842;28;20496;-64
2022/01/17 02:29:13;;;;;;;35.38;15.45;;;;;;;3.69;97.43;101828.59;5049729;28;20021;-64
2022/01/17 02:31:38;;;;;;;30.45;16.20;;;;;;;3.72;97.34;101828.66;5032370;28;20359;-64
2022/01/17 02:34:04;;;;;;;35.17;17.27;;;;;;;3.73;97.20;101819.91;5032167;28;20033;-64
2022/01/17 02:36:30;;;;;;;36.15;16.67;;;;;;;3.73;97.37;101835.69;5032201;28;20091;-64
2022/01/17 02:38:56;;;;;;;37.55;16.88;;;;;;;3.73;97.28;101815.53;5034244;28;20041;-64
2022/01/17 02:41:21;;;;;;;40.75;16.58;;;;;;;3.75;96.92;101818.22;5031798;28;20030;-64
2022/01/17 02:43:47;;;;;;;31.83;14.70;;;;;;;3.85;96.43;101820.22;5032013;28;20515;-64
2022/01/17 02:48:40;;;;;;;26.45;15.25;;;;;;;3.95;95.70;101822.19;5031745;28;20087;-64
2022/01/17 02:51:11;;;;;;;33.20;15.13;;;;;;;4.16;94.76;101822.66;5039514;28;20024;-64
2022/01/17 02:53:36;;;;;;;30.70;16.58;;;;;;;4.19;94.61;101833.25;5051657;28;20028;-64
2022/01/17 02:56:05;;;;;;;30.80;15.93;;;;;;;4.17;94.47;101842.88;5052081;28;20025;-64
2022/01/17 02:58:33;;;;;;;33.45;15.85;;;;;;;4.14;94.12;101840.19;5051344;28;20047;-64
2022/01/17 03:01:00;;;;;;;31.92;16.42;;;;;;;4.21;94.17;101842.09;5051260;28;20100;-64
2022/01/17 03:03:29;;;;;;;29.58;15.60;;;;;;;4.17;93.82;101834.97;5051552;28;20067;-64
2022/01/17 03:05:55;;;;;;;39.00;16.75;;;;;;;4.07;93.66;101823.34;5051650;28;20036;-64
2022/01/17 03:08:26;;;;;;;40.28;16.90;;;;;;;4.13;93.64;101827.88;5052165;28;20017;-64
2022/01/17 03:10:53;;;;;;;35.90;18.42;;;;;;;4.16;93.48;101827.94;5049128;28;20026;-64
2022/01/17 03:13:24;;;;;;;33.15;16.33;;;;;;;4.19;93.45;101822.72;5031776;28;20546;-64
2022/01/17 03:15:57;;;;;;;30.75;15.15;;;;;;;4.06;92.87;101799.63;5036797;28;20041;-64
2022/01/17 03:18:24;;;;;;;31.00;15.93;;;;;;;4.11;92.64;101813.78;5041501;28;20025;-64
2022/01/17 03:20:50;;;;;;;29.17;15.52;;;;;;;4.08;93.26;101811.09;5050560;28;20473;-64
2022/01/17 03:23:16;;;;;;;29.35;15.57;;;;;;;4.11;93.34;101808.50;5051231;28;20025;-64
2022/01/17 03:25:41;;;;;;;36.63;16.35;;;;;;;4.08;93.21;101809.31;5051780;28;20056;-64
2022/01/17 03:28:07;;;;;;;35.97;15.73;;;;;;;4.08;93.53;101819.00;5051033;28;20083;-64
2022/01/17 03:30:33;;;;;;;38.55;17.63;;;;;;;4.07;93.53;101806.66;5045725;28;20480;-64
2022/01/17 03:33:03;;;;;;;37.00;17.52;;;;;;;4.10;93.55;101798.84;5030913;28;20025;-64
2022/01/17 03:35:29;;;;;;;37.83;17.83;;;;;;;4.13;92.41;101816.44;5029514;28;20033;-64
2022/01/17 03:37:55;;;;;;;34.67;17.70;;;;;;;4.09;92.95;101823.38;5031538;28;20028;-64
2022/01/17 03:40:21;;;;;;;41.35;16.98;;;;;;;4.10;93.28;101814.66;5030746;28;20080;-64
2022/01/17 03:42:46;;;;;;;32.75;15.80;;;;;;;3.95;93.03;101804.63;5032783;28;20151;-64
2022/01/17 03:45:12;;;;;;;37.88;16.35;;;;;;;4.02;93.60;101803.03;5030803;28;20022;-64
2022/01/17 03:47:39;;;;;;;32.90;16.70;;;;;;;4.07;93.97;101806.66;5031173;28;20033;-64
2022/01/17 03:50:08;;;;;;;33.47;16.60;;;;;;;4.07;94.38;101811.91;5030445;28;20175;-64
2022/01/17 03:52:34;;;;;;;26.08;14.38;;;;;;;4.05;94.21;101811.03;5037629;28;20025;-64
2022/01/17 03:54:59;;;;;;;39.22;16.58;;;;;;;4.10;94.49;101833.09;5050751;28;20063;-64
2022/01/17 03:57:25;;;;;;;34.60;16.05;;;;;;;4.11;94.48;101837.47;5050220;28;20025;-64
2022/01/17 03:59:51;;;;;;;37.10;16.73;;;;;;;4.10;94.64;101842.72;5049635;28;20029;-64
2022/01/17 04:02:16;;;;;;;38.95;16.17;;;;;;;4.12;94.50;101844.50;5048959;28;20032;-64
2022/01/17 04:04:42;;;;;;;39.83;16.92;;;;;;;4.16;94.31;101856.91;5048247;28;20071;-64
2022/01/17 04:07:07;;;;;;;37.38;15.70;;;;;;;4.20;94.79;101852.59;5050046;28;20029;-64
2022/01/17 04:09:33;;;;;;;31.15;15.35;;;;;;;4.22;94.42;101859.66;5049321;28;20028;-64
2022/01/17 04:11:58;;;;;;;30.50;16.30;;;;;;;4.21;94.28;101857.00;5050427;28;20024;-64
2022/01/17 04:14:24;;;;;;;32.47;14.43;;;;;;;4.21;94.47;101851.72;5047017;28;20045;-64
2022/01/17 04:16:49;;;;;;;33.88;16.75;;;;;;;4.21;94.67;101863.16;5029691;28;20121;-64
2022/01/17 04:19:17;;;;;;;34.58;16.17;;;;;;;4.19;94.87;101867.50;5029714;28;20087;-64
2022/01/17 04:21:45;;;;;;;33.75;15.82;;;;;;;4.15;94.80;101865.66;5029962;28;20018;-64
2022/01/17 04:24:10;;;;;;;32.60;16.52;;;;;;;4.11;95.70;101861.19;5050061;28;20052;-64
2022/01/17 04:26:35;;;;;;;35.10;16.73;;;;;;;3.92;96.12;101865.13;5043051;28;20033;-64
2022/01/17 04:29:01;;;;;;;29.98;15.65;;;;;;;4.06;96.13;101857.53;5031758;28;20419;-63
2022/01/17 04:31:26;;;;;;;35.05;16.17;;;;;;;4.05;95.37;101845.25;5030021;28;20034;-64
2022/01/17 04:33:52;;;;;;;45.47;18.60;;;;;;;4.06;95.15;101836.47;5030003;28;20025;-64
2022/01/17 04:36:17;;;;;;;42.58;19.73;;;;;;;4.04;94.87;101838.19;5029964;28;20476;-64
2022/01/17 04:38:46;;;;;;;62.65;20.65;;;;;;;4.07;94.81;101832.97;5030090;28;20108;-64
2022/01/17 04:41:16;;;;;;;44.60;19.30;;;;;;;4.08;94.87;101824.25;5031081;28;20021;-64
2022/01/17 04:46:09;;;;;;;40.10;17.25;;;;;;;4.13;94.41;101824.34;5030201;28;20128;-64
2022/01/17 04:48:36;;;;;;;39.25;16.60;;;;;;;4.17;94.22;101827.06;5029801;28;20049;-64
2022/01/17 04:51:03;;;;;;;36.03;16.02;;;;;;;4.15;93.90;101841.97;5029090;28;20053;-64
2022/01/17 04:53:29;;;;;;;38.83;17.83;;;;;;;4.16;93.93;101843.75;5044071;28;20107;-64
2022/01/17 04:55:55;;;;;;;37.65;15.90;;;;;;;4.16;93.92;101846.38;5049769;28;20435;-64
2022/01/17 04:58:21;;;;;;;34.67;15.63;;;;;;;4.17;93.97;101837.59;5036257;28;20029;-64
2022/01/17 05:00:47;;;;;;;37.95;16.90;;;;;;;4.19;94.16;101851.69;5027781;28;20026;-64
2022/01/17 05:03:25;;;;;;;31.52;15.82;;;;;;;4.22;93.85;101854.41;5029749;28;20026;-64
2022/01/17 05:05:51;;;;;;;31.67;15.63;;;;;;;4.29;94.17;101856.31;5029588;28;20523;-64
2022/01/17 05:08:17;;;;;;;29.30;15.80;;;;;;;4.31;94.18;101857.25;5028951;28;20112;-64
2022/01/17 05:10:47;;;;;;;30.67;14.70;;;;;;;4.31;93.96;101851.09;5028711;28;20049;-64
2022/01/17 05:13:18;;;;;;;31.95;14.50;;;;;;;4.25;94.18;101848.31;5030090;28;20048;-64
2022/01/17 05:15:50;;;;;;;41.53;16.85;;;;;;;4.29;94.47;101851.06;5029191;28;20046;-64
2022/01/17 05:19:48;;;;;;;32.15;15.32;;;;;;;4.34;94.34;101853.78;5039662;28;20017;-64
2022/01/17 05:21:09;;;;;;;30.65;14.50;;;;;;;4.30;94.46;101863.34;5049277;28;20056;-64
2022/01/17 05:23:35;;;;;;;33.60;16.75;;;;;;;4.26;94.68;101848.34;5048376;28;20063;-64
2022/01/17 05:26:01;;;;;;;31.58;16.30;;;;;;;4.28;94.88;101849.28;5049463;28;20025;-64
2022/01/17 05:28:26;;;;;;;32.92;15.85;;;;;;;4.26;95.17;101851.00;5042581;28;20091;-64
2022/01/17 05:30:52;;;;;;;33.00;18.45;;;;;;;4.29;95.38;101856.31;5028919;28;20145;-64
2022/01/17 05:33:17;;;;;;;37.38;17.23;;;;;;;4.32;95.69;101861.66;5030304;28;20087;-64
2022/01/17 05:35:43;;;;;;;32.97;17.63;;;;;;;4.31;95.30;101859.88;5030366;28;20104;-64
2022/01/17 05:38:08;;;;;;;35.33;17.48;;;;;;;4.34;95.82;101862.56;5033378;28;20089;-64
2022/01/17 05:40:34;;;;;;;35.38;17.05;;;;;;;4.36;95.52;101874.03;5032702;28;20013;-64
2022/01/17 05:42:59;;;;;;;35.90;16.83;;;;;;;4.38;95.41;101871.44;5032487;28;20079;-64
2022/01/17 05:45:25;;;;;;;29.77;15.27;;;;;;;4.38;95.24;101867.06;5032677;28;20435;-64
2022/01/17 05:47:50;;;;;;;29.40;15.63;;;;;;;4.36;95.34;101874.03;5033064;28;20136;-64
2022/01/17 05:50:16;;;;;;;47.83;18.65;;;;;;;4.42;95.11;101878.53;5032684;28;20030;-64
2022/01/17 05:52:42;;;;;;;57.50;23.92;;;;;;;4.45;95.23;101879.50;5042558;28;20469;-64
2022/01/17 05:55:10;;;;;;;47.45;21.92;;;;;;;4.40;94.94;101880.28;5032858;28;20026;-64
2022/01/17 05:57:36;;;;;;;47.50;19.25;;;;;;;4.33;95.03;101886.25;5041197;28;20044;-64
2022/01/17 06:00:04;;;;;;;34.33;17.00;;;;;;;4.27;95.02;101872.97;5052414;28;20072;-64
2022/01/17 06:02:29;;;;;;;37.78;18.20;;;;;;;4.27;95.04;101873.81;5052420;28;20017;-64
2022/01/17 06:04:54;;;;;;;31.17;17.92;;;;;;;4.26;94.51;101865.91;5052815;28;20500;-64
2022/01/17 06:07:20;;;;;;;33.53;16.35;;;;;;;4.35;94.22;101856.44;5052697;28;20032;-64
2022/01/17 06:09:45;;;;;;;34.55;15.18;;;;;;;4.31;93.82;101846.72;5043316;28;20461;-64
2022/01/17 06:12:12;;;;;;;34.78;16.35;;;;;;;4.32;93.52;101852.84;5050113;28;20101;-64
2022/01/17 06:14:39;;;;;;;36.40;16.17;;;;;;;4.28;93.87;101846.66;5053356;28;20036;-64
2022/01/17 06:17:04;;;;;;;31.40;14.65;;;;;;;4.20;93.31;101840.28;5052394;28;20049;-64
2022/01/17 06:19:30;;;;;;;36.92;17.38;;;;;;;4.21;93.02;101838.56;5044684;28;20167;-64
2022/01/17 06:21:56;;;;;;;28.83;15.18;;;;;;;4.24;93.31;101831.63;5033512;28;20029;-64
2022/01/17 06:24:23;;;;;;;35.75;16.33;;;;;;;4.28;93.41;101843.13;5050340;28;20018;-64
2022/01/17 06:26:49;;;;;;;81.93;21.65;;;;;;;4.17;93.67;101829.69;5032206;28;20037;-64
2022/01/17 06:29:15;;;;;;;39.15;16.00;;;;;;;4.19;93.53;101838.53;5031673;28;20036;-64
2022/01/17 06:31:42;;;;;;;30.85;16.23;;;;;;;4.16;93.77;101853.38;5032180;28;20032;-64
2022/01/17 06:34:08;;;;;;;32.53;15.13;;;;;;;4.19;93.91;101867.50;5032471;28;20037;-64
2022/01/17 06:36:34;;;;;;;31.70;14.95;;;;;;;4.23;94.19;101872.00;5032201;28;20094;-64
2022/01/17 06:39:00;;;;;;;40.13;17.25;;;;;;;4.21;94.22;101878.06;5031608;28;20049;-64
2022/01/17 06:41:26;;;;;;;37.35;17.23;;;;;;;4.24;94.19;101889.56;5031095;28;20083;-64
2022/01/17 06:43:52;;;;;;;43.63;18.55;;;;;;;4.20;93.91;101894.72;5032159;28;20025;-64
2022/01/17 06:46:17;;;;;;;44.13;18.48;;;;;;;4.24;93.58;101900.09;5043661;28;20037;-64
2022/01/17 06:48:43;;;;;;;40.35;17.42;;;;;;;4.25;93.66;101907.13;5051793;28;20402;-64
2022/01/17 06:51:09;;;;;;;47.60;18.45;;;;;;;4.20;93.47;101900.00;5051165;28;20048;-64
2022/01/17 06:53:34;;;;;;;33.85;15.38;;;;;;;4.19;93.41;101891.19;5051670;28;20035;-64
2022/01/17 06:56:00;;;;;;;50.63;19.17;;;;;;;4.17;93.59;101903.44;5051729;28;20028;-64
2022/01/17 06:58:27;;;;;;;35.70;17.15;;;;;;;4.11;93.63;101892.78;5051756;28;20029;-64
2022/01/17 07:00:53;;;;;;;42.97;19.25;;;;;;;4.14;94.47;101913.91;5050703;28;20024;-64
2022/01/17 07:03:18;;;;;;;33.60;15.95;;;;;;;4.12;95.08;101905.06;5033727;28;20033;-64
2022/01/17 07:05:44;;;;;;;37.38;18.08;;;;;;;4.11;95.31;101913.84;5031061;28;20022;-64
2022/01/17 07:08:09;;;;;;;38.25;17.90;;;;;;;4.14;95.25;101913.00;5031510;28;20032;-64
2022/01/17 07:10:35;;;;;;;40.70;18.30;;;;;;;4.18;95.86;101926.31;5030188;28;20036;-64
2022/01/17 07:13:00;;;;;;;38.45;18.85;;;;;;;4.17;95.75;101948.19;5030470;28;20527;-63
2022/01/17 07:15:26;;;;;;;38.67;19.17;;;;;;;4.20;96.41;101955.31;5033480;28;20083;-63
2022/01/17 07:17:51;;;;;;;44.42;21.13;;;;;;;4.19;96.48;101970.19;5039854;28;20461;-63
2022/01/17 07:20:17;;;;;;;40.58;20.77;;;;;;;4.17;96.86;101979.81;5050285;28;20029;-64
2022/01/17 07:22:42;;;;;;;56.67;22.50;;;;;;;4.18;97.27;101988.59;5051039;28;20086;-64
2022/01/17 07:25:08;;;;;;;36.17;18.45;;;;;;;4.18;97.40;101994.78;5050329;28;20050;-64
2022/01/17 07:27:35;;;;;;;38.83;19.92;;;;;;;4.12;97.59;102018.31;5050307;28;20059;-64
2022/01/17 07:30:01;;;;;;;58.63;20.83;;;;;;;4.15;98.12;102034.19;5040877;28;20033;-64
2022/01/17 07:32:26;;;;;;;44.85;20.95;;;;;;;4.20;98.38;102008.84;5033239;28;20544;-64
2022/01/17 07:34:52;;;;;;;82.82;24.23;;;;;;;4.22;98.34;101988.72;5031155;28;20030;-64
2022/01/17 07:37:18;;;;;;;40.72;21.23;;;;;;;4.15;98.73;101978.91;5030672;28;20076;-64
2022/01/17 07:39:44;;;;;;;50.45;24.23;;;;;;;4.16;98.95;101969.25;5030500;28;20025;-64
2022/01/17 07:42:10;;;;;;;39.97;20.42;;;;;;;4.12;99.35;101963.00;5031165;28;20355;-64
2022/01/17 07:44:37;;;;;;;41.80;21.42;;;;;;;4.07;99.77;101954.09;5029764;28;20036;-64
2022/01/17 07:47:04;;;;;;;39.63;20.00;;;;;;;4.17;99.84;101955.25;5046058;28;20535;-64
2022/01/17 07:49:30;;;;;;;49.47;21.35;;;;;;;4.21;100.00;101973.78;5050142;28;20773;-64
2022/01/17 07:52:00;;;;;;;42.05;20.10;;;;;;;4.19;99.93;101980.75;5050575;28;20028;-64
2022/01/17 07:54:31;;;;;;;40.40;18.75;;;;;;;4.09;100.00;101968.19;5049297;28;20021;-64
2022/01/17 07:56:58;;;;;;;36.92;20.25;;;;;;;4.09;100.00;101965.56;5050039;28;20075;-64
2022/01/17 07:59:23;;;;;;;41.42;20.65;;;;;;;4.02;100.00;101976.78;5049708;28;20025;-64
2022/01/17 08:01:49;;;;;;;40.50;20.55;;;;;;;3.99;100.00;101981.97;5046633;28;20025;-64
2022/01/17 08:04:15;;;;;;;41.70;19.27;;;;;;;4.03;100.00;101990.03;5048772;28;20044;-64
2022/01/17 08:06:41;;;;;;;46.85;22.23;;;;;;;4.13;100.00;101993.78;5049331;28;20493;-64
2022/01/17 08:09:10;;;;;;;34.28;18.33;;;;;;;4.12;100.00;101984.06;5048466;28;20158;-64
2022/01/17 08:11:35;;;;;;;44.03;19.15;;;;;;;4.12;100.00;101989.34;5048045;28;20381;-64
2022/01/17 08:14:01;;;;;;;38.55;17.83;;;;;;;4.13;100.00;102000.75;5049033;28;20029;-64
2022/01/17 08:16:26;;;;;;;32.92;17.00;;;;;;;4.17;100.00;101998.25;5046651;28;20049;-64
2022/01/17 08:18:52;;;;;;;46.33;18.85;;;;;;;4.20;100.00;101997.44;5048999;28;20025;-64
2022/01/17 08:21:18;;;;;;;38.55;19.35;;;;;;;4.24;100.00;102002.81;5046693;28;20029;-64
2022/01/17 08:23:44;;;;;;;45.92;20.70;;;;;;;4.21;100.00;101994.84;5049138;28;20037;-64
2022/01/17 08:26:09;;;;;;;37.17;19.30;;;;;;;4.31;100.00;102015.28;5048467;28;20032;-64
2022/01/17 08:28:35;;;;;;;45.33;20.70;;;;;;;4.33;100.00;102013.59;5049417;28;20122;-64
2022/01/17 08:31:00;;;;;;;42.53;19.02;;;;;;;4.27;100.00;102026.59;5043596;28;20036;-64
2022/01/17 08:33:26;;;;;;;42.47;20.13;;;;;;;4.26;100.00;102035.34;5029180;28;20030;-64
2022/01/17 08:35:51;;;;;;;37.80;18.40;;;;;;;4.29;100.00;102040.69;5040385;28;20029;-64
2022/01/17 08:38:17;;;;;;;34.97;19.13;;;;;;;4.34;100.00;102028.53;5047251;28;20086;-64
2022/01/17 08:40:42;;;;;;;40.20;19.05;;;;;;;4.36;100.00;102025.94;5049357;28;20082;-65
2022/01/17 08:43:08;;;;;;;46.90;21.13;;;;;;;4.31;100.00;102011.75;5050050;28;20024;-64
2022/01/17 08:45:34;;;;;;;39.50;18.00;;;;;;;4.39;100.00;102008.44;5045217;28;20044;-64
2022/01/17 08:47:59;;;;;;;46.03;18.98;;;;;;;4.26;100.00;102003.75;5045054;28;20491;-64
2022/01/17 08:50:25;;;;;;;42.00;20.88;;;;;;;4.27;100.00;101989.72;5049016;28;20025;-64
2022/01/17 08:52:50;;;;;;;39.60;18.42;;;;;;;4.44;100.00;101998.91;5048681;28;20032;-64
2022/01/17 08:55:17;;;;;;;38.13;17.63;;;;;;;4.50;100.00;101998.19;5035952;28;20025;-64
2022/01/17 08:57:42;;;;;;;35.53;17.70;;;;;;;4.48;100.00;101987.56;5048682;28;20523;-64
2022/01/17 09:00:12;;;;;;;42.22;20.02;;;;;;;4.48;100.00;101984.94;5049189;28;20024;-63
2022/01/17 09:02:38;;;;;;;39.30;18.73;;;;;;;4.35;100.00;101969.72;5046190;28;20029;-63
2022/01/17 09:05:04;;;;;;;48.58;19.98;;;;;;;4.43;100.00;101975.19;5049659;28;20028;-63
2022/01/17 09:07:30;;;;;;;40.80;19.88;;;;;;;4.56;100.00;101988.69;5046781;28;20030;-64
2022/01/17 09:09:55;;;;;;;42.70;20.02;;;;;;;4.48;100.00;101992.84;5049071;28;20017;-63
2022/01/17 09:12:21;;;;;;;44.38;20.40;;;;;;;4.71;100.00;102018.00;5051029;28;20024;-63
2022/01/17 09:14:46;;;;;;;42.65;19.55;;;;;;;4.76;100.00;102024.25;5050689;28;20181;-64
2022/01/17 09:17:12;;;;;;;51.00;20.67;;;;;;;4.70;100.00;102037.31;5052615;28;20048;-63
2022/01/17 09:19:40;;;;;;;43.00;19.85;;;;;;;4.61;100.00;102042.34;5053280;28;20037;-63
2022/01/17 09:22:07;;;;;;;37.95;18.65;;;;;;;4.59;100.00;102045.81;5045835;28;20031;-63
2022/01/17 09:24:37;;;;;;;38.92;18.10;;;;;;;4.55;100.00;102050.13;5036361;28;20060;-63
2022/01/17 09:27:04;;;;;;;38.33;17.40;;;;;;;4.63;100.00;102051.19;5041270;28;20068;-63
2022/01/17 09:29:31;;;;;;;42.72;20.45;;;;;;;4.59;100.00;102048.44;5031641;28;20069;-63
2022/01/17 09:31:57;;;;;;;40.00;20.08;;;;;;;4.66;100.00;102051.25;5048771;28;20034;-63
2022/01/17 09:34:22;;;;;;;44.03;21.55;;;;;;;4.65;100.00;102049.47;5032825;28;20087;-63
2022/01/17 09:36:48;;;;;;;37.97;19.10;;;;;;;4.80;100.00;102062.13;5051608;28;20090;-63
2022/01/17 09:39:14;;;;;;;45.30;17.95;;;;;;;4.84;100.00;102067.50;5048229;28;20036;-63
2022/01/17 09:41:40;;;;;;;41.15;20.00;;;;;;;4.82;100.00;102063.97;5030045;28;20365;-63
2022/01/17 09:44:06;;;;;;;40.30;18.98;;;;;;;4.92;100.00;102079.13;5033018;28;20041;-63
2022/01/17 09:46:38;;;;;;;37.40;18.63;;;;;;;4.95;100.00;102071.28;5044397;28;20480;-64
2022/01/17 09:49:14;;;;;;;40.20;19.35;;;;;;;4.85;100.00;102090.38;5052209;28;20036;-64
2022/01/17 09:54:27;;;;;;;43.65;19.67;;;;;;;4.92;100.00;102072.97;5051867;28;20028;-64
2022/01/17 09:56:58;;;;;;;35.90;18.50;;;;;;;4.93;100.00;102080.00;5033520;28;20480;-64
2022/01/17 09:59:23;;;;;;;40.50;21.48;;;;;;;4.88;100.00;102093.09;5032234;28;20386;-65
2022/01/17 10:01:50;;;;;;;44.13;19.10;;;;;;;4.94;100.00;102066.84;5039830;28;20025;-64
2022/01/17 10:04:17;;;;;;;57.72;37.92;;;;;;;5.06;100.00;102092.63;5051880;28;20107;-64
2022/01/17 10:06:50;;;;;;;34.60;20.75;;;;;;;5.08;100.00;102085.63;5047115;28;20027;-64
2022/01/17 10:09:21;;;;;;;42.83;20.48;;;;;;;4.96;100.00;102059.88;5040891;28;20033;-64
2022/01/17 10:12:03;;;;;;;43.90;18.95;;;;;;;5.02;100.00;102065.31;5040435;28;20057;-64
2022/01/17 10:14:35;;;;;;;40.85;19.17;;;;;;;4.98;100.00;102052.91;5035092;28;20029;-64
2022/01/17 10:17:02;;;;;;;43.72;19.02;;;;;;;4.91;100.00;102040.44;5041094;28;20049;-64
2022/01/17 10:19:28;;;;;;;42.47;19.30;;;;;;;4.96;100.00;102033.50;5051231;28;20035;-64
2022/01/17 10:21:56;;;;;;;41.30;18.05;;;;;;;4.99;100.00;102028.28;5051284;28;20025;-65
2022/01/17 10:35:28;;;;;;;44.88;20.25;;;;;;;9.41;83.28;102016.53;5031038;28;20047;-65
2022/01/17 10:37:56;;;;;;;40.55;20.83;;;;;;;9.17;81.70;102021.75;5032190;28;20036;-65
2022/01/17 10:40:23;;;;;;;40.35;19.35;;;;;;;9.03;80.00;102028.75;5049095;28;20324;-65
2022/01/17 10:42:50;;;;;;;39.85;17.42;;;;;;;8.31;81.62;102021.16;5049342;28;20369;-65
2022/01/17 10:45:30;;;;;;;30.30;15.80;;;;;;;7.59;83.94;102046.88;5051782;28;20361;-65
2022/01/17 10:47:58;;;;;;;28.85;15.27;;;;;;;6.88;88.17;102051.22;5045830;28;20063;-65
2022/01/17 10:50:45;;;;;;;36.35;16.40;;;;;;;6.86;90.36;102060.88;5039118;28;20025;-64
2022/01/17 10:53:13;;;;;;;33.70;16.30;;;;;;;6.65;91.67;102055.28;5050611;28;20021;-64
2022/01/17 10:55:45;;;;;;;35.03;16.85;;;;;;;6.54;93.64;102067.41;5052252;28;20400;-64
2022/01/17 10:58:21;;;;;;;30.40;14.85;;;;;;;6.41;93.63;102083.94;5048990;28;20485;-64
2022/01/17 11:00:53;;;;;;;29.23;13.73;;;;;;;6.25;95.26;102087.19;5050920;28;20248;-64
2022/01/17 11:03:22;;;;;;;31.85;14.52;;;;;;;6.28;95.82;102104.00;5051215;28;20440;-64
2022/01/17 11:05:52;;;;;;;29.02;14.63;;;;;;;6.07;95.97;102110.63;5047310;28;20033;-64
2022/01/17 11:08:19;;;;;;;35.53;16.33;;;;;;;6.02;97.59;102109.66;5039841;28;20369;-64
2022/01/17 11:10:53;;;;;;;32.17;16.13;;;;;;;5.98;98.39;102099.91;5037103;28;20160;-64
2022/01/17 11:13:20;;;;;;;31.63;14.27;;;;;;;5.97;98.85;102100.75;5030653;28;20044;-64
2022/01/17 11:15:51;;;;;;;30.38;14.20;;;;;;;6.01;99.59;102097.31;5045334;28;20090;-64
2022/01/17 11:18:23;;;;;;;27.02;13.98;;;;;;;6.07;99.45;102093.03;5049995;28;20028;-64
2022/01/17 11:20:53;;;;;;;31.52;14.55;;;;;;;6.05;100.00;102093.84;5047150;28;20052;-64
2022/01/17 11:23:21;;;;;;;34.72;14.90;;;;;;;6.09;100.00;102093.06;5041271;28;20508;-64
2022/01/17 11:25:52;;;;;;;149.65;80.35;;;;;;;6.06;100.00;102096.50;5031356;28;20026;-64
2022/01/17 11:28:21;;;;;;;43.75;23.77;;;;;;;6.10;100.00;102097.47;5035573;28;20466;-64
2022/01/17 11:30:49;;;;;;;36.72;17.05;;;;;;;6.10;100.00;102097.47;5030293;28;20118;-64
2022/01/17 11:33:14;;;;;;;48.40;27.58;;;;;;;6.21;100.00;102101.22;5031118;28;20033;-64
2022/01/17 11:35:42;;;;;;;35.22;17.45;;;;;;;6.25;100.00;102103.03;5031050;28;20095;-64
2022/01/17 11:38:14;;;;;;;83.05;39.13;;;;;;;6.39;100.00;102098.91;5031151;28;20048;-64
2022/01/17 11:40:41;;;;;;;376.30;162.00;;;;;;;6.44;100.00;102089.31;5030743;28;20021;-64